| time (UTC) | temp C | wind direction | speed KPH | gust KPH | rain 1hr cm | rain 24hr cm | rain mn cm | humidity % | barometer mb |
| 20260508054428 | -3 | 269 | 48.3 | 54.7 | 0.00 | 0.00 | 0.00 | 95 | 1023.0 |
| 20260508053924 | -3 | 275 | 46.7 | 48.3 | 0.00 | 0.00 | 0.00 | 96 | 1022.9 |
| 20260508053421 | -3 | 274 | 40.2 | 41.8 | 0.00 | 0.00 | 0.00 | 95 | 1023.0 |
| 20260508052919 | -3 | 260 | 43.5 | 49.9 | 0.00 | 0.00 | 0.00 | 94 | 1023.0 |
| 20260508052416 | -3 | 273 | 43.5 | 49.9 | 0.00 | 0.00 | 0.00 | 94 | 1023.0 |
| 20260508051912 | -2 | 293 | 51.5 | 54.7 | 0.00 | 0.00 | 0.00 | 92 | 1022.5 |
| 20260508051408 | -2 | 277 | 54.7 | 61.2 | 0.00 | 0.00 | 0.00 | 91 | 1023.0 |
| 20260508050904 | -2 | 276 | 54.7 | 54.7 | 0.00 | 0.00 | 0.00 | 90 | 1022.7 |
| 20260508050402 | -2 | 258 | 45.1 | 48.3 | 0.00 | 0.00 | 0.00 | 89 | 1022.9 |
| 20260508045857 | -2 | 277 | 54.7 | 56.3 | 0.00 | 0.00 | 0.00 | 89 | 1022.5 |
| 20260508045355 | -2 | 275 | 54.7 | 56.3 | 0.00 | 0.00 | 0.00 | 88 | 1022.9 |
| 20260508044853 | -2 | 274 | 56.3 | 59.5 | 0.00 | 0.00 | 0.00 | 87 | 1022.9 |
| 20260508044349 | -2 | 273 | 51.5 | 61.2 | 0.00 | 0.00 | 0.00 | 87 | 1022.9 |
| 20260508043845 | -2 | 142 | 41.8 | 43.5 | 0.00 | 0.00 | 0.00 | 87 | 1023.0 |
| 20260508043342 | -2 | 180 | 48.3 | 56.3 | 0.00 | 0.00 | 0.00 | 85 | 1022.6 |
| 20260508042838 | -2 | 270 | 53.1 | 56.3 | 0.00 | 0.00 | 0.00 | 84 | 1023.0 |
| 20260508042337 | -2 | 268 | 43.5 | 48.3 | 0.00 | 0.00 | 0.00 | 86 | 1023.2 |
| 20260508041833 | -2 | 277 | 48.3 | 49.9 | 0.00 | 0.00 | 0.00 | 85 | 1023.2 |
| 20260508041329 | -2 | 11 | 43.5 | 43.5 | 0.00 | 0.00 | 0.00 | 84 | 1023.0 |
| 20260508040826 | -2 | 280 | 41.8 | 43.5 | 0.00 | 0.00 | 0.00 | 85 | 1023.0 |
| 20260508040324 | -2 | 277 | 40.2 | 48.3 | 0.00 | 0.00 | 0.00 | 84 | 1023.2 |
| 20260508035820 | -2 | 272 | 35.4 | 38.6 | 0.00 | 0.00 | 0.00 | 85 | 1023.2 |
| 20260508035318 | -2 | 261 | 35.4 | 40.2 | 0.00 | 0.00 | 0.00 | 84 | 1023.0 |
| 20260508034815 | -2 | 269 | 38.6 | 40.2 | 0.00 | 0.00 | 0.00 | 84 | 1022.9 |
| 20260508034312 | -2 | 297 | 32.2 | 35.4 | 0.00 | 0.00 | 0.00 | 85 | 1023.2 |
| 20260508033809 | -2 | 266 | 46.7 | 49.9 | 0.00 | 0.00 | 0.00 | 83 | 1022.7 |
| 20260508033307 | -2 | 268 | 35.4 | 37.0 | 0.00 | 0.00 | 0.00 | 84 | 1022.7 |
| 20260508032804 | -2 | 278 | 38.6 | 41.8 | 0.00 | 0.00 | 0.00 | 83 | 1022.9 |
| 20260508032305 | -2 | 262 | 48.3 | 54.7 | 0.00 | 0.00 | 0.00 | 82 | 1022.7 |
| 20260508031758 | -2 | 262 | 51.5 | 54.7 | 0.00 | 0.00 | 0.00 | 82 | 1022.6 |
| 20260508031255 | -2 | 271 | 45.1 | 49.9 | 0.00 | 0.00 | 0.00 | 82 | 1022.6 |
| 20260508030751 | -2 | 268 | 41.8 | 48.3 | 0.00 | 0.00 | 0.00 | 82 | 1022.5 |
| 20260508030248 | -2 | 251 | 40.2 | 41.8 | 0.00 | 0.00 | 0.00 | 83 | 1022.9 |
| 20260508025745 | -1 | 273 | 38.6 | 41.8 | 0.00 | 0.00 | 0.00 | 83 | 1022.7 |
| 20260508025242 | -1 | 295 | 35.4 | 37.0 | 0.00 | 0.00 | 0.00 | 81 | 1022.5 |
| 20260508024738 | -1 | 270 | 45.1 | 49.9 | 0.00 | 0.00 | 0.00 | 82 | 1022.7 |
| 20260508024235 | -1 | 268 | 41.8 | 41.8 | 0.00 | 0.00 | 0.00 | 82 | 1022.5 |
| 20260508023732 | -1 | 271 | 41.8 | 48.3 | 0.00 | 0.00 | 0.00 | 82 | 1022.6 |
| 20260508023229 | -1 | 275 | 40.2 | 43.5 | 0.00 | 0.00 | 0.00 | 82 | 1022.6 |
| 20260508022725 | -1 | 255 | 30.6 | 40.2 | 0.00 | 0.00 | 0.00 | 82 | 1022.6 |
| 20260508022222 | -1 | 272 | 33.8 | 37.0 | 0.00 | 0.00 | 0.00 | 80 | 1022.7 |
| 20260508021718 | -1 | 273 | 40.2 | 43.5 | 0.00 | 0.00 | 0.00 | 81 | 1022.6 |
| 20260508021214 | -1 | 278 | 37.0 | 40.2 | 0.00 | 0.00 | 0.00 | 80 | 1022.3 |
| 20260508020712 | -1 | 273 | 38.6 | 40.2 | 0.00 | 0.00 | 0.00 | 80 | 1022.3 |
| 20260508020209 | -1 | 276 | 41.8 | 46.7 | 0.00 | 0.00 | 0.00 | 80 | 1022.5 |
| 20260508015706 | -1 | 271 | 35.4 | 38.6 | 0.00 | 0.00 | 0.00 | 79 | 1022.6 |
| 20260508015203 | -1 | 273 | 51.5 | 53.1 | 0.00 | 0.00 | 0.00 | 80 | 1022.5 |
| 20260508014659 | -1 | 277 | 61.2 | 67.6 | 0.00 | 0.00 | 0.00 | 79 | 1022.0 |
| 20260508014155 | -1 | 257 | 45.1 | 51.5 | 0.00 | 0.00 | 0.00 | 78 | 1022.2 |
| 20260508013652 | -1 | 271 | 37.0 | 38.6 | 0.00 | 0.00 | 0.00 | 79 | 1022.3 |
| 20260508013148 | -1 | 242 | 46.7 | 51.5 | 0.00 | 0.00 | 0.00 | 77 | 1022.0 |
| 20260508012646 | -1 | 247 | 43.5 | 49.9 | 0.00 | 0.00 | 0.00 | 77 | 1022.0 |
| 20260508012143 | -1 | 313 | 43.5 | 48.3 | 0.00 | 0.00 | 0.00 | 78 | 1022.0 |
| 20260508011641 | -1 | 280 | 61.2 | 64.4 | 0.00 | 0.00 | 0.00 | 78 | 1021.7 |
| 20260508011138 | -1 | 274 | 45.1 | 49.9 | 0.00 | 0.00 | 0.00 | 79 | 1022.0 |
| 20260508010635 | -1 | 271 | 38.6 | 41.8 | 0.00 | 0.00 | 0.00 | 80 | 1022.0 |
| 20260508010133 | -1 | 279 | 48.3 | 51.5 | 0.00 | 0.00 | 0.00 | 77 | 1022.0 |
| 20260508005630 | -1 | 283 | 30.6 | 32.2 | 0.00 | 0.00 | 0.00 | 79 | 1021.9 |
| 20260508005126 | -1 | 45 | 40.2 | 41.8 | 0.00 | 0.00 | 0.00 | 77 | 1021.9 |
| 20260508004622 | -1 | 183 | 46.7 | 49.9 | 0.00 | 0.00 | 0.00 | 77 | 1021.9 |
| 20260508004119 | -1 | 270 | 38.6 | 40.2 | 0.00 | 0.00 | 0.00 | 78 | 1021.9 |
| 20260508003615 | -1 | 259 | 40.2 | 43.5 | 0.00 | 0.00 | 0.00 | 77 | 1021.6 |
| 20260508003113 | -1 | 271 | 33.8 | 37.0 | 0.00 | 0.00 | 0.00 | 77 | 1021.7 |
| 20260508002609 | -1 | 275 | 46.7 | 49.9 | 0.00 | 0.00 | 0.00 | 76 | 1021.6 |
| 20260508002107 | -1 | 274 | 43.5 | 46.7 | 0.00 | 0.00 | 0.00 | 76 | 1021.7 |
| 20260508001602 | -1 | 272 | 48.3 | 51.5 | 0.00 | 0.00 | 0.00 | 77 | 1021.4 |
| 20260508001058 | -1 | 268 | 48.3 | 51.5 | 0.00 | 0.00 | 0.00 | 76 | 1022.0 |
| 20260508000554 | 0 | 288 | 64.4 | 75.6 | 0.00 | 0.00 | 0.00 | 73 | 1021.6 |
| 20260508000052 | 0 | 263 | 49.9 | 51.5 | 0.00 | 0.00 | 0.00 | 74 | 1021.7 |
| 20260507235548 | 0 | 253 | 38.6 | 40.2 | 0.00 | 0.00 | 0.00 | 76 | 1021.9 |
| 20260507235046 | 0 | 138 | 37.0 | 40.2 | 0.00 | 0.00 | 0.00 | 74 | 1021.9 |
| 20260507234542 | 0 | 273 | 46.7 | 48.3 | 0.00 | 0.00 | 0.00 | 77 | 1021.7 |
| 20260507234039 | -1 | 282 | 38.6 | 46.7 | 0.00 | 0.00 | 0.00 | 78 | 1021.7 |
| 20260507233536 | -1 | 250 | 38.6 | 41.8 | 0.00 | 0.00 | 0.00 | 80 | 1021.9 |
| 20260507233035 | -1 | 264 | 35.4 | 38.6 | 0.00 | 0.00 | 0.00 | 80 | 1022.0 |
| 20260507232530 | -1 | 272 | 41.8 | 46.7 | 0.00 | 0.00 | 0.00 | 82 | 1022.0 |
| 20260507232027 | -1 | 275 | 40.2 | 43.5 | 0.00 | 0.00 | 0.00 | 82 | 1021.7 |
| 20260507231524 | -1 | 272 | 43.5 | 49.9 | 0.00 | 0.00 | 0.00 | 81 | 1022.0 |
| 20260507231022 | -1 | 264 | 41.8 | 43.5 | 0.00 | 0.00 | 0.00 | 81 | 1021.9 |
| 20260507230518 | -1 | 286 | 38.6 | 41.8 | 0.00 | 0.00 | 0.00 | 82 | 1021.9 |
| 20260507230015 | -1 | 96 | 41.8 | 43.5 | 0.00 | 0.00 | 0.00 | 81 | 1021.9 |
| 20260507225510 | -1 | 272 | 43.5 | 49.9 | 0.00 | 0.00 | 0.00 | 84 | 1022.0 |
| 20260507225007 | -1 | 283 | 45.1 | 49.9 | 0.00 | 0.00 | 0.00 | 82 | 1022.0 |
| 20260507224502 | -1 | 272 | 41.8 | 41.8 | 0.00 | 0.00 | 0.00 | 81 | 1022.0 |
| 20260507223959 | -1 | 267 | 49.9 | 53.1 | 0.00 | 0.00 | 0.00 | 81 | 1022.0 |
| 20260507223454 | -1 | 164 | 40.2 | 41.8 | 0.00 | 0.00 | 0.00 | 82 | 1022.2 |
| 20260507222952 | -1 | 270 | 35.4 | 40.2 | 0.00 | 0.00 | 0.00 | 80 | 1022.5 |
| 20260507222449 | -1 | 275 | 46.7 | 53.1 | 0.00 | 0.00 | 0.00 | 82 | 1022.2 |
| 20260507221945 | -1 | 265 | 41.8 | 43.5 | 0.00 | 0.00 | 0.00 | 82 | 1022.5 |
| 20260507221442 | -1 | 278 | 41.8 | 43.5 | 0.00 | 0.00 | 0.00 | 81 | 1022.3 |
| 20260507220938 | -1 | 141 | 35.4 | 38.6 | 0.00 | 0.00 | 0.00 | 80 | 1022.3 |
| 20260507220436 | -1 | 267 | 45.1 | 49.9 | 0.00 | 0.00 | 0.00 | 82 | 1022.5 |
| 20260507215933 | -1 | 281 | 45.1 | 49.9 | 0.00 | 0.00 | 0.00 | 81 | 1022.3 |
| 20260507215429 | -1 | 269 | 45.1 | 48.3 | 0.00 | 0.00 | 0.00 | 82 | 1022.3 |
| 20260507214926 | -1 | 280 | 46.7 | 51.5 | 0.00 | 0.00 | 0.00 | 81 | 1022.6 |
| 20260507214424 | -1 | 280 | 57.9 | 62.8 | 0.00 | 0.00 | 0.00 | 80 | 1022.5 |
| 20260507213919 | -1 | 263 | 46.7 | 54.7 | 0.00 | 0.00 | 0.00 | 79 | 1022.7 |
| 20260507213416 | -1 | 265 | 57.9 | 61.2 | 0.00 | 0.00 | 0.00 | 79 | 1022.7 |
| 20260507212913 | -1 | 280 | 56.3 | 59.5 | 0.00 | 0.00 | 0.00 | 77 | 1022.3 |
| 20260507212409 | -1 | 276 | 53.1 | 56.3 | 0.00 | 0.00 | 0.00 | 77 | 1022.3 |
| 20260507211906 | -1 | 260 | 45.1 | 49.9 | 0.00 | 0.00 | 0.00 | 78 | 1022.5 |
| 20260507211402 | -1 | 270 | 49.9 | 54.7 | 0.00 | 0.00 | 0.00 | 78 | 1022.0 |
| 20260507210859 | -1 | 265 | 49.9 | 54.7 | 0.00 | 0.00 | 0.00 | 78 | 1022.3 |
| 20260507210356 | -1 | 275 | 41.8 | 46.7 | 0.00 | 0.00 | 0.00 | 78 | 1022.7 |
| 20260507205853 | -1 | 254 | 37.0 | 40.2 | 0.00 | 0.00 | 0.00 | 75 | 1022.5 |
| 20260507205350 | -1 | 268 | 51.5 | 59.5 | 0.00 | 0.00 | 0.00 | 78 | 1022.9 |
| 20260507204846 | -1 | 268 | 37.0 | 38.6 | 0.00 | 0.00 | 0.00 | 76 | 1022.7 |
| 20260507204343 | -1 | 264 | 27.4 | 32.2 | 0.00 | 0.00 | 0.00 | 78 | 1023.0 |
| 20260507203841 | -1 | 282 | 40.2 | 48.3 | 0.00 | 0.00 | 0.00 | 78 | 1022.9 |
| 20260507203339 | -1 | 272 | 48.3 | 53.1 | 0.00 | 0.00 | 0.00 | 78 | 1022.6 |
| 20260507202834 | -1 | 285 | 40.2 | 48.3 | 0.00 | 0.00 | 0.00 | 77 | 1023.3 |
| 20260507202331 | -1 | 278 | 40.2 | 43.5 | 0.00 | 0.00 | 0.00 | 78 | 1022.7 |
| 20260507201827 | -2 | 279 | 37.0 | 40.2 | 0.00 | 0.00 | 0.00 | 78 | 1023.0 |
| 20260507201322 | -1 | 280 | 48.3 | 51.5 | 0.00 | 0.00 | 0.00 | 81 | 1022.7 |
| 20260507200819 | -2 | 277 | 46.7 | 51.5 | 0.00 | 0.00 | 0.00 | 79 | 1022.7 |
| 20260507200315 | -2 | 267 | 43.5 | 48.3 | 0.00 | 0.00 | 0.00 | 82 | 1023.0 |
| 20260507195811 | -2 | 257 | 45.1 | 49.9 | 0.00 | 0.00 | 0.00 | 82 | 1022.6 |
| 20260507195309 | -2 | 272 | 45.1 | 48.3 | 0.00 | 0.00 | 0.00 | 81 | 1022.9 |
| 20260507194806 | -2 | 266 | 51.5 | 56.3 | 0.00 | 0.00 | 0.00 | 81 | 1022.6 |
| 20260507194302 | -2 | 278 | 48.3 | 51.5 | 0.00 | 0.00 | 0.00 | 81 | 1022.7 |
| 20260507193758 | -2 | 270 | 43.5 | 46.7 | 0.00 | 0.00 | 0.00 | 82 | 1022.9 |
| 20260507193255 | -2 | 273 | 51.5 | 59.5 | 0.00 | 0.00 | 0.00 | 82 | 1022.7 |
| 20260507192751 | -2 | 262 | 57.9 | 61.2 | 0.00 | 0.00 | 0.00 | 82 | 1022.5 |
| 20260507192248 | -2 | 270 | 51.5 | 56.3 | 0.00 | 0.00 | 0.00 | 82 | 1022.6 |
| 20260507191744 | -2 | 272 | 51.5 | 54.7 | 0.00 | 0.00 | 0.00 | 83 | 1022.9 |
| 20260507191241 | -2 | 272 | 54.7 | 59.5 | 0.00 | 0.00 | 0.00 | 84 | 1022.5 |
| 20260507190738 | -2 | 272 | 57.9 | 61.2 | 0.00 | 0.00 | 0.00 | 83 | 1022.5 |
| 20260507190237 | -2 | 265 | 54.7 | 56.3 | 0.00 | 0.00 | 0.00 | 82 | 1022.9 |
| 20260507185735 | -2 | 266 | 59.5 | 61.2 | 0.00 | 0.00 | 0.00 | 82 | 1022.7 |
| 20260507185231 | -2 | 274 | 59.5 | 64.4 | 0.00 | 0.00 | 0.00 | 83 | 1022.7 |
| 20260507184729 | -3 | 267 | 49.9 | 53.1 | 0.00 | 0.00 | 0.00 | 83 | 1022.9 |
| 20260507184227 | -2 | 274 | 54.7 | 61.2 | 0.00 | 0.00 | 0.00 | 84 | 1022.9 |
| 20260507183723 | -3 | 288 | 57.9 | 61.2 | 0.00 | 0.00 | 0.00 | 84 | 1022.7 |
| 20260507183220 | -3 | 273 | 49.9 | 51.5 | 0.00 | 0.00 | 0.00 | 85 | 1022.9 |
| 20260507182717 | -3 | 276 | 46.7 | 51.5 | 0.00 | 0.00 | 0.00 | 85 | 1023.2 |
| 20260507182212 | -3 | 273 | 40.2 | 40.2 | 0.00 | 0.00 | 0.00 | 84 | 1023.0 |
| 20260507181709 | -3 | 275 | 54.7 | 62.8 | 0.00 | 0.00 | 0.00 | 86 | 1023.0 |
| 20260507181206 | -3 | 261 | 41.8 | 46.7 | 0.00 | 0.00 | 0.00 | 86 | 1022.9 |
| 20260507180702 | -3 | 260 | 49.9 | 54.7 | 0.00 | 0.00 | 0.00 | 85 | 1022.9 |
| 20260507180159 | -3 | 276 | 37.0 | 38.6 | 0.00 | 0.00 | 0.00 | 88 | 1023.0 |
| 20260507175655 | -3 | 272 | 40.2 | 43.5 | 0.00 | 0.00 | 0.00 | 88 | 1023.2 |
| 20260507175152 | -3 | 262 | 46.7 | 49.9 | 0.00 | 0.00 | 0.00 | 87 | 1022.9 |
| 20260507174650 | -3 | 282 | 38.6 | 40.2 | 0.00 | 0.00 | 0.00 | 86 | 1023.2 |
| 20260507174148 | -3 | 274 | 40.2 | 43.5 | 0.00 | 0.00 | 0.00 | 87 | 1022.6 |
| 20260507173645 | -3 | 266 | 48.3 | 53.1 | 0.00 | 0.00 | 0.00 | 85 | 1022.9 |
| 20260507173141 | -3 | 272 | 38.6 | 43.5 | 0.00 | 0.00 | 0.00 | 87 | 1023.0 |
| 20260507172638 | -3 | 271 | 37.0 | 41.8 | 0.00 | 0.00 | 0.00 | 88 | 1023.3 |
| 20260507172135 | -3 | 272 | 32.2 | 38.6 | 0.00 | 0.00 | 0.00 | 87 | 1023.3 |
| 20260507171635 | -3 | 223 | 32.2 | 37.0 | 0.00 | 0.00 | 0.00 | 89 | 1023.3 |
| 20260507171133 | -4 | 273 | 38.6 | 41.8 | 0.00 | 0.00 | 0.00 | 89 | 1023.5 |
| 20260507170630 | -4 | 273 | 30.6 | 33.8 | 0.00 | 0.00 | 0.00 | 89 | 1023.5 |
| 20260507170127 | -4 | 270 | 29.0 | 32.2 | 0.00 | 0.00 | 0.00 | 89 | 1023.8 |
| 20260507165622 | -4 | 255 | 30.6 | 32.2 | 0.00 | 0.00 | 0.00 | 88 | 1023.5 |
| 20260507165119 | -4 | 258 | 22.5 | 24.1 | 0.00 | 0.00 | 0.00 | 89 | 1023.5 |
| 20260507164615 | -4 | 274 | 17.7 | 17.7 | 0.00 | 0.00 | 0.00 | 88 | 1023.5 |
| 20260507164112 | -5 | 266 | 24.1 | 27.4 | 0.00 | 0.00 | 0.00 | 89 | 1023.6 |
| 20260507163609 | -5 | 234 | 20.9 | 22.5 | 0.00 | 0.00 | 0.00 | 88 | 1023.9 |
| 20260507163107 | -5 | 240 | 24.1 | 27.4 | 0.00 | 0.00 | 0.00 | 88 | 1023.6 |
| 20260507162602 | -4 | 256 | 19.3 | 22.5 | 0.00 | 0.00 | 0.00 | 87 | 1023.5 |
| 20260507162059 | -5 | 270 | 20.9 | 25.7 | 0.00 | 0.00 | 0.00 | 87 | 1023.5 |
| 20260507161555 | -5 | 282 | 27.4 | 32.2 | 0.00 | 0.00 | 0.00 | 88 | 1023.8 |
| 20260507161052 | -5 | 271 | 24.1 | 27.4 | 0.00 | 0.00 | 0.00 | 88 | 1023.8 |
| 20260507160548 | -5 | 247 | 22.5 | 24.1 | 0.00 | 0.00 | 0.00 | 89 | 1023.6 |
| 20260507160044 | -5 | 256 | 19.3 | 20.9 | 0.00 | 0.00 | 0.00 | 89 | 1023.5 |
| 20260507155540 | -5 | 222 | 25.7 | 25.7 | 0.00 | 0.00 | 0.00 | 89 | 1023.6 |
| 20260507155037 | -5 | 242 | 32.2 | 35.4 | 0.00 | 0.00 | 0.00 | 90 | 1023.6 |
| 20260507154534 | -6 | 249 | 27.4 | 29.0 | 0.00 | 0.00 | 0.00 | 90 | 1023.9 |
| 20260507154031 | -6 | 225 | 24.1 | 27.4 | 0.00 | 0.00 | 0.00 | 91 | 1023.8 |
| 20260507153528 | -6 | 250 | 25.7 | 29.0 | 0.00 | 0.00 | 0.00 | 91 | 1023.6 |
| 20260507153024 | -6 | 256 | 30.6 | 33.8 | 0.00 | 0.00 | 0.00 | 91 | 1023.9 |
| 20260507152520 | -6 | 256 | 29.0 | 33.8 | 0.00 | 0.00 | 0.00 | 91 | 1024.1 |
| 20260507152017 | -6 | 258 | 24.1 | 27.4 | 0.00 | 0.00 | 0.00 | 91 | 1024.1 |
| 20260507151513 | -6 | 252 | 25.7 | 27.4 | 0.00 | 0.00 | 0.00 | 91 | 1024.2 |
| 20260507151010 | -7 | 253 | 20.9 | 22.5 | 0.00 | 0.00 | 0.00 | 91 | 1023.8 |
| 20260507150507 | -7 | 268 | 20.9 | 24.1 | 0.00 | 0.00 | 0.00 | 91 | 1024.2 |
| 20260507150004 | -7 | 287 | 20.9 | 22.5 | 0.00 | 0.00 | 0.00 | 91 | 1024.3 |
| 20260507145458 | -7 | 279 | 19.3 | 20.9 | 0.00 | 0.00 | 0.00 | 91 | 1023.9 |
| 20260507144956 | -7 | 283 | 17.7 | 20.9 | 0.00 | 0.00 | 0.00 | 90 | 1024.2 |
| 20260507144452 | -7 | 272 | 14.5 | 16.1 | 0.00 | 0.00 | 0.00 | 90 | 1023.9 |
| 20260507143949 | -6 | 282 | 12.9 | 14.5 | 0.00 | 0.00 | 0.00 | 88 | 1023.9 |
| 20260507143447 | -6 | 282 | 9.7 | 11.3 | 0.00 | 0.00 | 0.00 | 89 | 1024.2 |
| 20260507142944 | -7 | 282 | 8.0 | 9.7 | 0.00 | 0.00 | 0.00 | 90 | 1023.9 |
| 20260507142439 | -7 | 335 | 8.0 | 9.7 | 0.00 | 0.00 | 0.00 | 90 | 1024.1 |
| 20260507141937 | -7 | 280 | 11.3 | 11.3 | 0.00 | 0.00 | 0.00 | 89 | 1024.1 |
| 20260507141432 | -7 | 283 | 8.0 | 9.7 | 0.00 | 0.00 | 0.00 | 89 | 1024.1 |
| 20260507140930 | -7 | 279 | 8.0 | 9.7 | 0.00 | 0.00 | 0.00 | 89 | 1024.2 |
| 20260507140426 | -7 | 279 | 8.0 | 9.7 | 0.00 | 0.00 | 0.00 | 90 | 1023.9 |
| 20260507135924 | -7 | 295 | 9.7 | 11.3 | 0.00 | 0.00 | 0.00 | 89 | 1023.9 |
| 20260507135420 | -7 | 274 | 9.7 | 11.3 | 0.00 | 0.00 | 0.00 | 89 | 1023.9 |
| 20260507134918 | -8 | 280 | 9.7 | 11.3 | 0.00 | 0.00 | 0.00 | 89 | 1024.1 |
| 20260507134414 | -8 | 328 | 9.7 | 9.7 | 0.00 | 0.00 | 0.00 | 89 | 1023.9 |
| 20260507133910 | -8 | 275 | 8.0 | 9.7 | 0.00 | 0.00 | 0.00 | 90 | 1023.9 |
| 20260507133406 | -8 | 303 | 9.7 | 9.7 | 0.00 | 0.00 | 0.00 | 89 | 1023.6 |
| 20260507132905 | -7 | 303 | 14.5 | 16.1 | 0.00 | 0.00 | 0.00 | 91 | 1023.9 |
| 20260507132401 | -8 | 331 | 14.5 | 16.1 | 0.00 | 0.00 | 0.00 | 90 | 1023.8 |
| 20260507131858 | -8 | 291 | 11.3 | 12.9 | 0.00 | 0.00 | 0.00 | 90 | 1023.6 |
| 20260507131355 | -8 | 260 | 11.3 | 11.3 | 0.00 | 0.00 | 0.00 | 91 | 1023.5 |
| 20260507130852 | -7 | 347 | 17.7 | 17.7 | 0.00 | 0.00 | 0.00 | 92 | 1023.3 |
| 20260507130348 | -8 | 1 | 12.9 | 12.9 | 0.00 | 0.00 | 0.00 | 91 | 1023.3 |
| 20260507125848 | -8 | 338 | 8.0 | 9.7 | 0.00 | 0.00 | 0.00 | 90 | 1023.6 |
| 20260507125344 | -8 | 309 | 9.7 | 11.3 | 0.00 | 0.00 | 0.00 | 90 | 1023.5 |
| 20260507124842 | -8 | 309 | 11.3 | 12.9 | 0.00 | 0.00 | 0.00 | 91 | 1023.2 |
| 20260507124338 | -8 | 311 | 11.3 | 12.9 | 0.00 | 0.00 | 0.00 | 90 | 1023.3 |
| 20260507123837 | -8 | 284 | 9.7 | 11.3 | 0.00 | 0.00 | 0.00 | 91 | 1023.3 |
| 20260507123334 | -8 | 314 | 11.3 | 11.3 | 0.00 | 0.00 | 0.00 | 91 | 1023.2 |
| 20260507122830 | -8 | 268 | 6.4 | 8.0 | 0.00 | 0.00 | 0.00 | 90 | 1023.2 |
| 20260507122325 | -8 | 267 | 11.3 | 11.3 | 0.00 | 0.00 | 0.00 | 89 | 1023.2 |
| 20260507121823 | -8 | 267 | 12.9 | 12.9 | 0.00 | 0.00 | 0.00 | 91 | 1023.0 |
| 20260507121317 | -8 | 283 | 14.5 | 14.5 | 0.00 | 0.00 | 0.00 | 92 | 1023.3 |
| 20260507120814 | -8 | 265 | 11.3 | 12.9 | 0.00 | 0.00 | 0.00 | 92 | 1023.2 |
| 20260507120310 | -8 | 266 | 16.1 | 16.1 | 0.00 | 0.00 | 0.00 | 92 | 1022.9 |
| 20260507115807 | -8 | 329 | 17.7 | 20.9 | 0.00 | 0.00 | 0.00 | 92 | 1023.0 |
| 20260507115306 | -8 | 341 | 16.1 | 16.1 | 0.00 | 0.00 | 0.00 | 92 | 1023.0 |
| 20260507114758 | -8 | 324 | 14.5 | 16.1 | 0.00 | 0.00 | 0.00 | 93 | 1023.2 |
| 20260507114256 | -8 | 326 | 20.9 | 24.1 | 0.00 | 0.00 | 0.00 | 93 | 1023.2 |
| 20260507113753 | -8 | 333 | 22.5 | 24.1 | 0.00 | 0.00 | 0.00 | 94 | 1022.9 |
| 20260507113250 | -8 | 331 | 20.9 | 24.1 | 0.00 | 0.00 | 0.00 | 94 | 1022.5 |
| 20260507112748 | -8 | 331 | 17.7 | 17.7 | 0.00 | 0.00 | 0.00 | 94 | 1022.9 |
| 20260507112244 | -8 | 357 | 19.3 | 22.5 | 0.00 | 0.00 | 0.00 | 94 | 1022.6 |
| 20260507111742 | -8 | 351 | 16.1 | 20.9 | 0.00 | 0.00 | 0.00 | 94 | 1022.7 |
| 20260507111238 | -8 | 335 | 19.3 | 22.5 | 0.00 | 0.00 | 0.00 | 94 | 1022.5 |
| 20260507110734 | -8 | 328 | 19.3 | 20.9 | 0.00 | 0.00 | 0.00 | 94 | 1022.6 |
| 20260507110231 | -8 | 330 | 16.1 | 17.7 | 0.00 | 0.00 | 0.00 | 94 | 1022.6 |
| 20260507105728 | -8 | 341 | 17.7 | 17.7 | 0.00 | 0.00 | 0.00 | 94 | 1022.5 |
| 20260507105224 | -8 | 332 | 20.9 | 22.5 | 0.00 | 0.00 | 0.00 | 94 | 1022.6 |
| 20260507104722 | -8 | 331 | 20.9 | 24.1 | 0.00 | 0.00 | 0.00 | 94 | 1022.6 |
| 20260507104218 | -8 | 329 | 24.1 | 25.7 | 0.00 | 0.00 | 0.00 | 94 | 1022.2 |
| 20260507103714 | -8 | 334 | 22.5 | 24.1 | 0.00 | 0.00 | 0.00 | 94 | 1022.5 |
| 20260507103210 | -8 | 338 | 29.0 | 29.0 | 0.00 | 0.00 | 0.00 | 94 | 1022.5 |
| 20260507102707 | -8 | 332 | 22.5 | 22.5 | 0.00 | 0.00 | 0.00 | 94 | 1022.7 |
| 20260507102204 | -8 | 326 | 24.1 | 25.7 | 0.00 | 0.00 | 0.00 | 94 | 1022.5 |
| 20260507101700 | -8 | 330 | 29.0 | 32.2 | 0.00 | 0.00 | 0.00 | 94 | 1022.7 |
| 20260507101155 | -8 | 50 | 27.4 | 29.0 | 0.00 | 0.00 | 0.00 | 94 | 1022.6 |
| 20260507100653 | -8 | 68 | 27.4 | 27.4 | 0.00 | 0.00 | 0.00 | 94 | 1022.7 |
| 20260507100151 | -8 | 337 | 20.9 | 24.1 | 0.00 | 0.00 | 0.00 | 94 | 1022.7 |
| 20260507095649 | -8 | 339 | 22.5 | 24.1 | 0.00 | 0.00 | 0.00 | 94 | 1022.9 |
| 20260507095145 | -8 | 334 | 27.4 | 29.0 | 0.00 | 0.00 | 0.00 | 94 | 1022.9 |
| 20260507094642 | -8 | 333 | 27.4 | 29.0 | 0.00 | 0.00 | 0.00 | 94 | 1022.7 |
| 20260507094138 | -8 | 339 | 30.6 | 32.2 | 0.00 | 0.00 | 0.00 | 94 | 1022.6 |
| 20260507093636 | -8 | 336 | 32.2 | 35.4 | 0.00 | 0.00 | 0.00 | 94 | 1022.5 |
| 20260507093134 | -8 | 339 | 30.6 | 33.8 | 0.00 | 0.00 | 0.00 | 94 | 1022.6 |
| 20260507092631 | -8 | 343 | 24.1 | 27.4 | 0.00 | 0.00 | 0.00 | 94 | 1022.9 |
| 20260507092127 | -8 | 333 | 25.7 | 29.0 | 0.00 | 0.00 | 0.00 | 94 | 1022.6 |
| 20260507091624 | -8 | 352 | 33.8 | 35.4 | 0.00 | 0.00 | 0.00 | 94 | 1022.7 |
| 20260507091120 | -8 | 338 | 30.6 | 32.2 | 0.00 | 0.00 | 0.00 | 94 | 1022.7 |
| 20260507090616 | -8 | 331 | 32.2 | 33.8 | 0.00 | 0.00 | 0.00 | 94 | 1022.9 |
| 20260507090113 | -8 | 337 | 35.4 | 37.0 | 0.00 | 0.00 | 0.00 | 94 | 1022.7 |
| 20260507085610 | -8 | 333 | 27.4 | 29.0 | 0.00 | 0.00 | 0.00 | 94 | 1022.9 |
| 20260507085107 | -8 | 325 | 24.1 | 27.4 | 0.00 | 0.00 | 0.00 | 94 | 1022.9 |
| 20260507084603 | -8 | 336 | 22.5 | 24.1 | 0.00 | 0.00 | 0.00 | 93 | 1022.7 |
| 20260507084100 | -8 | 335 | 29.0 | 32.2 | 0.00 | 0.00 | 0.00 | 94 | 1022.6 |
| 20260507083556 | -8 | 328 | 24.1 | 25.7 | 0.00 | 0.00 | 0.00 | 93 | 1022.9 |
| 20260507083054 | -9 | 335 | 27.4 | 29.0 | 0.00 | 0.00 | 0.00 | 93 | 1022.7 |
| 20260507082549 | -8 | 328 | 27.4 | 29.0 | 0.00 | 0.00 | 0.00 | 93 | 1023.0 |
| 20260507082046 | -9 | 329 | 25.7 | 27.4 | 0.00 | 0.00 | 0.00 | 93 | 1022.7 |
| 20260507081542 | -9 | 327 | 30.6 | 33.8 | 0.00 | 0.00 | 0.00 | 93 | 1022.9 |
| 20260507081040 | -9 | 328 | 30.6 | 32.2 | 0.00 | 0.00 | 0.00 | 92 | 1022.6 |
| 20260507080535 | -9 | 327 | 33.8 | 37.0 | 0.00 | 0.00 | 0.00 | 92 | 1022.9 |
| 20260507080032 | -10 | 131 | 27.4 | 29.0 | 0.00 | 0.00 | 0.00 | 92 | 1022.7 |
| 20260507075527 | -10 | 312 | 30.6 | 32.2 | 0.00 | 0.00 | 0.00 | 92 | 1022.7 |
| 20260507075024 | -10 | 300 | 24.1 | 25.7 | 0.00 | 0.00 | 0.00 | 92 | 1022.7 |
| 20260507074521 | -10 | 348 | 29.0 | 29.0 | 0.00 | 0.00 | 0.00 | 92 | 1022.9 |
| 20260507074020 | -10 | 339 | 33.8 | 37.0 | 0.00 | 0.00 | 0.00 | 93 | 1022.6 |
| 20260507073515 | -10 | 306 | 30.6 | 33.8 | 0.00 | 0.00 | 0.00 | 93 | 1022.6 |
| 20260507073012 | -10 | 319 | 27.4 | 29.0 | 0.00 | 0.00 | 0.00 | 93 | 1022.6 |
| 20260507072509 | -10 | 338 | 29.0 | 32.2 | 0.00 | 0.00 | 0.00 | 93 | 1022.6 |
| 20260507072006 | -11 | 329 | 33.8 | 37.0 | 0.00 | 0.00 | 0.00 | 93 | 1022.6 |
| 20260507071504 | -11 | 310 | 25.7 | 25.7 | 0.00 | 0.00 | 0.00 | 93 | 1022.7 |
| 20260507071000 | -11 | 303 | 30.6 | 32.2 | 0.00 | 0.00 | 0.00 | 93 | 1022.5 |
| 20260507070457 | -11 | 122 | 29.0 | 32.2 | 0.00 | 0.00 | 0.00 | 93 | 1022.6 |
| 20260507065954 | -11 | 270 | 27.4 | 29.0 | 0.00 | 0.00 | 0.00 | 93 | 1022.7 |
| 20260507065451 | -11 | 306 | 24.1 | 25.7 | 0.00 | 0.00 | 0.00 | 93 | 1022.6 |
| 20260507064948 | -11 | 306 | 25.7 | 25.7 | 0.00 | 0.00 | 0.00 | 93 | 1022.7 |
| 20260507064446 | -11 | 308 | 29.0 | 32.2 | 0.00 | 0.00 | 0.00 | 93 | 1022.7 |
| 20260507063943 | -11 | 145 | 32.2 | 35.4 | 0.00 | 0.00 | 0.00 | 93 | 1022.9 |
| 20260507063440 | -11 | 197 | 30.6 | 32.2 | 0.00 | 0.00 | 0.00 | 93 | 1022.9 |
| 20260507062937 | -11 | 298 | 32.2 | 33.8 | 0.00 | 0.00 | 0.00 | 93 | 1023.0 |
| 20260507062434 | -11 | 306 | 29.0 | 29.0 | 0.00 | 0.00 | 0.00 | 93 | 1023.3 |
| 20260507061932 | -11 | 297 | 32.2 | 35.4 | 0.00 | 0.00 | 0.00 | 93 | 1022.7 |
| 20260507061430 | -11 | 291 | 33.8 | 35.4 | 0.00 | 0.00 | 0.00 | 93 | 1022.9 |
| 20260507060928 | -11 | 326 | 38.6 | 38.6 | 0.00 | 0.00 | 0.00 | 93 | 1022.6 |
| 20260507060424 | -11 | 316 | 38.6 | 38.6 | 0.00 | 0.00 | 0.00 | 93 | 1022.7 |
| 20260507055921 | -11 | 340 | 35.4 | 37.0 | 0.00 | 0.00 | 0.00 | 93 | 1022.7 |
| 20260507055417 | -11 | 292 | 35.4 | 37.0 | 0.00 | 0.00 | 0.00 | 93 | 1022.6 |
| 20260507054914 | -11 | 297 | 35.4 | 38.6 | 0.00 | 0.00 | 0.00 | 93 | 1022.6 |